Ardmore, PA

5:34 PM EST on January 30, 2015 (GMT -0500)
Woodmere Park | Change Station
CLOSE
Current Station
Personal Weather Station
Location: Havertown, PA
Elevation: 295 ft
Nearby Weather Stations

Elev 295 ft 39.99 °N, 75.30 °W | Updated 7 seconds ago

Overcast
Overcast
31.3 °F
Feels Like 31 °F
N
2.9
Wind Variable Wind from West
Gusts 7.4 mph

Today
High -- | Low -- °F
--% Chance of Precip.
Yesterday
High -- | Low -- °F
Precip. -- in
7:11 AM 5:17 PM
Waxing Gibbous, 85% visible
Pressure 30.00 in
Visibility 10.0 miles
Clouds Few 2600 ft
Mostly Cloudy 3500 ft
Windchill 31 °F
Dew Point 20 °F
Humidity 62%
Rainfall 0.00 in
Snow Depth Not available.
UV 0.0 out of 12
Pollen .10 out of 12
Air Quality Not available.
Flu Activity Not available.
SPECI KPHL 302208Z 29019G28KT 10SM FEW026 BKN035 01/M06 A3000 RMK AO2 PK WND 30028/2203 SNE07 P0000 T00111056 $

More Conditions Fewer Conditions

Pressure 30.00 in
Visibility 10.0 miles
Clouds Few 2600 ft
Mostly Cloudy 3500 ft
Windchill 31 °F
Dew Point 20 °F
Humidity 62%
Rainfall 0.00 in
Snow Depth Not available.
UV 0.0 out of 12
Pollen .10 out of 12
Air Quality Not available.
Flu Activity Not available.
SPECI KPHL 302208Z 29019G28KT 10SM FEW026 BKN035 01/M06 A3000 RMK AO2 PK WND 30028/2203 SNE07 P0000 T00111056 $

More Conditions Fewer Conditions

Nowcast | as of 5:11 PM EST on January 30, 2015

More scattered snow showers will cross the region through the evening hours from the northwest. Some of the showers are capable of producing moderate to heavy snowfall rates with a quick half an inch accumulation possible. The more intense showers will drop visibilities below one-half mile at times. Strong northwest winds, upwards of 40 mph, will make temperatures feel like they are in the teens this evening.

×

10-Day Weather Forecast

Almanac

Astronomy

Jan. 30, 2015 Rise Set
Actual Time
Civil Twilight
Nautical Twilight
Astronomical Twilight
Moon
Length of Visible Light
Length of Day
Tomorrow will be .
, % of the Moon is Illuminated

Today's Extremes

State Highs State Lows

Community

WunderPhotos

Upload Photos

1,791,904 photos uploaded!

WunderBlogs® & News

Nearby

Air Quality

  Air Quality AQ Index Pollutant
Not available.

Snow Depth

Station Depth Elevation

Earthquake Activity

City Distance Mag. Time & Date
Minimum magnitude displayed is 2.5.

Coastal Water Temperatures

Place Temperature

Nearby Weather Stations